createdAt,value
2022-11-18T00:01:19.605Z,34.26
2022-11-18T00:03:48.868Z,35.09
2022-11-18T00:06:18.563Z,34.20
2022-11-18T00:08:47.271Z,34.09
2022-11-18T00:11:37.460Z,33.79
2022-11-18T00:14:19.552Z,34.06
2022-11-18T00:16:48.311Z,34.06
2022-11-18T00:19:17.028Z,34.00
2022-11-18T00:21:45.277Z,33.68
2022-11-18T00:24:13.785Z,33.88
2022-11-18T00:26:41.862Z,34.76
2022-11-18T00:29:12.616Z,34.32
2022-11-18T00:31:41.266Z,34.93
2022-11-18T00:34:13.334Z,34.44
2022-11-18T00:36:42.025Z,34.65
2022-11-18T00:39:12.520Z,34.39
2022-11-18T00:41:58.431Z,34.70
2022-11-18T00:44:28.593Z,34.19
2022-11-18T00:46:56.849Z,34.71
2022-11-18T00:49:25.691Z,35.00
2022-11-18T00:51:53.865Z,34.68
2022-11-18T00:54:22.625Z,34.49
2022-11-18T00:56:50.798Z,34.72
2022-11-18T00:59:19.430Z,34.48
2022-11-18T01:01:49.319Z,34.04
2022-11-18T01:04:18.395Z,34.10
2022-11-18T01:06:46.508Z,33.91
2022-11-18T01:09:15.173Z,33.49
2022-11-18T01:12:00.860Z,33.46
2022-11-18T01:14:29.207Z,33.28
2022-11-18T01:16:59.018Z,33.06
2022-11-18T01:19:27.652Z,33.28
2022-11-18T01:21:56.676Z,32.96
2022-11-18T01:24:25.165Z,33.28
2022-11-18T01:26:53.365Z,33.06
2022-11-18T01:29:21.997Z,33.23
2022-11-18T01:32:22.245Z,33.19
2022-11-18T01:34:39.730Z,32.81
2022-11-18T01:37:07.896Z,32.89
2022-11-18T01:39:36.434Z,32.60
2022-11-18T01:42:04.596Z,32.46
2022-11-18T01:44:59.088Z,31.99
2022-11-18T01:47:29.995Z,32.76
2022-11-18T01:50:00.557Z,32.68
2022-11-18T01:52:28.812Z,33.48
2022-11-18T01:55:00.283Z,33.01
2022-11-18T01:57:30.868Z,33.25
2022-11-18T02:00:00.719Z,33.64
2022-11-18T02:02:29.417Z,33.97
2022-11-18T02:04:59.400Z,33.85
2022-11-18T02:07:28.460Z,33.24
2022-11-18T02:09:57.540Z,33.21
2022-11-18T02:12:25.750Z,33.16
2022-11-18T02:14:54.260Z,33.16
2022-11-18T02:17:34.309Z,33.24
2022-11-18T02:20:35.260Z,32.49
2022-11-18T02:23:45.260Z,33.51
2022-11-18T02:27:01.143Z,33.87
2022-11-18T02:29:33.644Z,34.53
2022-11-18T02:32:03.628Z,34.77
2022-11-18T02:34:41.151Z,34.84
2022-11-18T02:37:15.217Z,34.57
2022-11-18T02:39:46.344Z,34.67
2022-11-18T02:42:14.484Z,32.99
2022-11-18T02:44:49.877Z,33.76
2022-11-18T02:47:18.664Z,34.94
2022-11-18T02:49:50.022Z,34.18
2022-11-18T02:52:20.468Z,34.49
2022-11-18T02:54:49.298Z,34.46
2022-11-18T02:57:17.866Z,35.31
2022-11-18T02:59:47.533Z,34.68
2022-11-18T03:02:18.068Z,34.47
2022-11-18T03:04:47.865Z,34.46
2022-11-18T03:07:19.484Z,34.15
2022-11-18T03:09:49.493Z,34.36
2022-11-18T03:12:23.781Z,34.37
2022-11-18T03:15:00.448Z,33.49
2022-11-18T03:17:36.054Z,33.91
2022-11-18T03:20:13.500Z,33.37
2022-11-18T03:22:44.756Z,33.98
2022-11-18T03:25:15.508Z,33.41
2022-11-18T03:27:48.190Z,33.08
2022-11-18T03:30:21.173Z,33.12
2022-11-18T03:32:52.879Z,33.14
2022-11-18T03:35:24.219Z,32.68
2022-11-18T03:37:53.598Z,32.65
2022-11-18T03:40:24.029Z,33.41
2022-11-18T03:42:54.888Z,33.52
2022-11-18T03:45:27.262Z,33.34
2022-11-18T03:47:58.255Z,33.86
2022-11-18T03:50:29.263Z,33.63
2022-11-18T03:52:57.344Z,32.50
2022-11-18T03:55:30.108Z,33.26
2022-11-18T03:58:03.279Z,33.62
2022-11-18T04:00:36.592Z,33.55
2022-11-18T04:03:05.267Z,34.00
2022-11-18T04:05:36.163Z,33.82
2022-11-18T04:08:06.625Z,33.56
2022-11-18T04:10:36.948Z,33.75
2022-11-18T04:13:08.912Z,34.31
2022-11-18T04:15:41.601Z,35.42
2022-11-18T04:18:10.852Z,35.56
2022-11-18T04:20:39.222Z,35.64
2022-11-18T04:23:08.837Z,35.48
2022-11-18T04:25:37.314Z,36.22
2022-11-18T04:28:06.054Z,36.76
2022-11-18T04:30:34.434Z,37.33
2022-11-18T04:33:07.363Z,37.82
2022-11-18T04:35:35.532Z,38.32
2022-11-18T04:38:05.038Z,37.93
2022-11-18T04:40:33.275Z,37.37
2022-11-18T04:43:01.769Z,36.97
2022-11-18T04:45:29.886Z,37.71
2022-11-18T04:48:03.307Z,37.63
2022-11-18T04:50:33.256Z,37.31
2022-11-18T04:53:01.634Z,37.04
2022-11-18T04:55:29.634Z,37.79
2022-11-18T04:57:58.096Z,37.91
2022-11-18T05:00:26.179Z,37.94
2022-11-18T05:02:54.745Z,37.58
2022-11-18T05:05:22.937Z,37.22
2022-11-18T05:07:53.389Z,36.98
2022-11-18T05:10:21.395Z,37.27
2022-11-18T05:12:48.852Z,37.38
2022-11-18T05:15:17.545Z,38.01
2022-11-18T05:17:46.079Z,37.52
2022-11-18T05:20:14.652Z,37.41
2022-11-18T05:22:42.915Z,37.96
2022-11-18T05:25:12.430Z,37.51
2022-11-18T05:27:40.745Z,37.93
2022-11-18T05:30:10.162Z,38.10
2022-11-18T05:32:38.477Z,38.24
2022-11-18T05:35:07.448Z,37.70
2022-11-18T05:37:35.868Z,38.44
2022-11-18T05:40:04.443Z,38.09
2022-11-18T05:42:51.329Z,37.17
2022-11-18T05:45:20.672Z,37.52
2022-11-18T05:48:01.252Z,37.71
2022-11-18T05:50:29.361Z,37.30
2022-11-18T05:52:57.801Z,37.05
2022-11-18T05:55:30.955Z,37.21
2022-11-18T05:58:00.771Z,37.11
2022-11-18T06:00:28.975Z,36.55
2022-11-18T06:02:58.141Z,36.41
2022-11-18T06:05:27.809Z,36.36
2022-11-18T06:07:57.229Z,37.77
2022-11-18T06:10:27.641Z,37.38
2022-11-18T06:12:57.925Z,37.16
2022-11-18T06:15:29.796Z,36.22
2022-11-18T06:18:00.865Z,36.26
2022-11-18T06:20:29.386Z,36.51
2022-11-18T06:22:58.723Z,36.63
2022-11-18T06:25:27.029Z,36.65
2022-11-18T06:27:56.825Z,36.39
2022-11-18T06:30:25.147Z,36.52
2022-11-18T06:32:54.911Z,36.19
2022-11-18T06:35:23.056Z,37.05
2022-11-18T06:37:51.697Z,37.01
2022-11-18T06:40:20.030Z,37.03
2022-11-18T06:43:05.967Z,37.26
2022-11-18T06:45:36.609Z,36.46
2022-11-18T06:48:06.062Z,36.77
2022-11-18T06:50:34.109Z,36.45
2022-11-18T06:53:02.480Z,36.54
2022-11-18T06:55:30.589Z,37.17
2022-11-18T06:57:59.013Z,36.61
2022-11-18T07:00:27.179Z,36.29
2022-11-18T07:02:55.686Z,36.40
2022-11-18T07:05:25.066Z,36.09
2022-11-18T07:07:53.465Z,36.64
2022-11-18T07:10:21.649Z,36.52
2022-11-18T07:12:50.159Z,37.04
2022-11-18T07:15:18.496Z,37.28
2022-11-18T07:17:46.970Z,37.38
2022-11-18T07:20:15.208Z,38.06
2022-11-18T07:22:45.035Z,38.58
2022-11-18T07:25:13.102Z,37.49
2022-11-18T07:27:41.759Z,37.71
2022-11-18T07:30:10.731Z,37.59
2022-11-18T07:32:39.224Z,38.06
2022-11-18T07:35:08.284Z,36.97
2022-11-18T07:37:36.695Z,37.05
2022-11-18T07:40:07.710Z,36.76
2022-11-18T07:42:42.819Z,36.71
2022-11-18T07:45:12.309Z,38.48
2022-11-18T07:47:40.746Z,38.54
2022-11-18T07:50:09.510Z,38.60
2022-11-18T07:52:37.865Z,37.81
2022-11-18T07:55:08.066Z,38.22
2022-11-18T07:57:36.467Z,37.43
2022-11-18T08:00:05.987Z,37.38
2022-11-18T08:02:34.603Z,38.23
2022-11-18T08:05:02.967Z,38.36
2022-11-18T08:07:31.469Z,37.84
2022-11-18T08:09:59.528Z,37.11
2022-11-18T08:12:30.826Z,36.87
2022-11-18T08:14:59.057Z,37.60
2022-11-18T08:17:27.590Z,37.68
2022-11-18T08:19:55.886Z,38.25
2022-11-18T08:22:24.626Z,37.88
2022-11-18T08:24:52.759Z,37.50
2022-11-18T08:27:21.466Z,37.75
2022-11-18T08:29:51.009Z,36.80
2022-11-18T08:32:20.037Z,36.58
2022-11-18T08:34:48.120Z,36.54
2022-11-18T08:37:16.594Z,37.44
2022-11-18T08:39:44.884Z,37.18
2022-11-18T08:42:13.383Z,37.27
2022-11-18T08:44:41.455Z,37.08
2022-11-18T08:47:11.476Z,36.58
2022-11-18T08:49:39.717Z,36.46
2022-11-18T08:52:08.188Z,36.77
2022-11-18T08:54:36.405Z,36.40
2022-11-18T08:57:05.082Z,36.67
2022-11-18T08:59:33.429Z,36.12
2022-11-18T09:02:02.043Z,36.02
2022-11-18T09:04:31.848Z,35.79
2022-11-18T09:07:00.431Z,36.19
2022-11-18T09:09:28.812Z,35.89
2022-11-18T09:11:57.377Z,35.52
2022-11-18T09:17:15.356Z,34.92
2022-11-18T09:20:05.878Z,34.68
2022-11-18T09:22:33.953Z,34.70
2022-11-18T09:25:02.500Z,34.40
2022-11-18T09:27:30.567Z,33.99
2022-11-18T09:29:59.017Z,34.14
2022-11-18T09:32:27.227Z,33.99
2022-11-18T09:34:55.795Z,33.83
2022-11-18T09:37:25.265Z,33.73
2022-11-18T09:39:53.773Z,34.09
2022-11-18T09:42:31.247Z,33.52
2022-11-18T09:45:14.058Z,33.46
2022-11-18T09:47:44.314Z,33.70
2022-11-18T09:50:47.424Z,33.42
2022-11-18T09:53:12.424Z,32.92
2022-11-18T09:55:41.940Z,33.45
2022-11-18T09:58:16.744Z,33.07
2022-11-18T10:00:46.887Z,33.60
2022-11-18T10:03:18.914Z,33.37
2022-11-18T10:05:50.318Z,33.23
2022-11-18T10:08:23.708Z,32.85
2022-11-18T10:10:59.525Z,32.93
2022-11-18T10:13:36.766Z,32.71
2022-11-18T10:16:11.497Z,32.60
2022-11-18T10:18:59.767Z,32.62
2022-11-18T10:21:39.194Z,32.52
2022-11-18T10:24:14.581Z,32.39
2022-11-18T10:26:43.427Z,32.79
2022-11-18T10:29:11.704Z,32.67
2022-11-18T10:31:40.764Z,32.39
2022-11-18T10:34:12.196Z,32.52
2022-11-18T10:36:41.575Z,32.63
2022-11-18T10:39:13.434Z,32.78
2022-11-18T10:41:46.414Z,32.64
2022-11-18T10:44:38.392Z,31.76
2022-11-18T10:47:18.482Z,31.92
2022-11-18T10:49:47.138Z,32.58
2022-11-18T10:52:16.469Z,32.50
2022-11-18T10:54:46.015Z,32.48
2022-11-18T10:57:17.738Z,32.96
2022-11-18T10:59:47.754Z,31.60
2022-11-18T11:02:18.867Z,32.87
2022-11-18T11:04:47.821Z,32.78
2022-11-18T11:07:27.144Z,32.43
2022-11-18T11:10:09.027Z,32.10
2022-11-18T11:12:39.020Z,32.91
2022-11-18T11:15:12.442Z,32.48
2022-11-18T11:17:44.109Z,33.07
2022-11-18T11:20:19.563Z,32.53
2022-11-18T11:22:48.101Z,33.04
2022-11-18T11:25:19.578Z,32.57
2022-11-18T11:30:46.488Z,32.99
2022-11-18T11:33:28.398Z,32.28
2022-11-18T11:36:05.119Z,32.32
2022-11-18T11:38:42.400Z,32.28
2022-11-18T11:41:17.206Z,32.30
2022-11-18T11:43:59.823Z,32.19
2022-11-18T11:46:39.440Z,32.01
2022-11-18T11:49:18.396Z,32.07
2022-11-18T11:51:50.416Z,32.37
2022-11-18T11:54:29.440Z,31.81
2022-11-18T11:57:00.574Z,32.19
2022-11-18T11:59:33.289Z,32.24
2022-11-18T12:02:26.513Z,31.68
2022-11-18T12:04:56.808Z,31.86
2022-11-18T12:07:29.190Z,31.48
2022-11-18T12:10:16.592Z,30.94
2022-11-18T12:12:53.256Z,31.16
2022-11-18T12:15:31.324Z,31.11
2022-11-18T12:18:06.545Z,31.17
2022-11-18T12:20:43.800Z,31.42
2022-11-18T12:23:14.156Z,31.39
2022-11-18T12:26:10.485Z,31.44
2022-11-18T12:28:42.242Z,31.57
2022-11-18T12:31:35.338Z,30.57
2022-11-18T12:34:06.186Z,31.66
2022-11-18T12:36:36.281Z,31.81
2022-11-18T12:39:47.510Z,30.71
2022-11-18T12:42:52.570Z,30.57
2022-11-18T12:45:51.461Z,30.52
2022-11-18T12:48:47.037Z,30.20
2022-11-18T12:51:45.154Z,30.03
2022-11-18T12:54:34.784Z,30.21
2022-11-18T12:57:04.746Z,30.75
2022-11-18T12:59:37.616Z,30.36
2022-11-18T13:02:19.210Z,30.06
2022-11-18T13:04:52.138Z,30.50
2022-11-18T13:07:38.560Z,30.66
2022-11-18T13:10:21.364Z,30.28
2022-11-18T13:12:49.874Z,30.54
2022-11-18T13:15:37.240Z,30.44
2022-11-18T13:18:15.107Z,30.10
2022-11-18T13:20:44.277Z,30.31
2022-11-18T13:23:45.304Z,29.78
2022-11-18T13:26:20.451Z,30.59
2022-11-18T13:29:12.337Z,30.50
2022-11-18T13:31:45.434Z,30.66
2022-11-18T13:34:19.688Z,30.28
2022-11-18T13:36:49.915Z,30.36
2022-11-18T13:39:24.332Z,29.93
2022-11-18T13:42:06.382Z,29.77
2022-11-18T13:44:35.961Z,29.76
2022-11-18T13:47:12.845Z,29.54
2022-11-18T13:50:02.578Z,29.33
2022-11-18T13:52:33.698Z,29.91
2022-11-18T13:55:03.185Z,30.47
2022-11-18T13:57:31.820Z,30.43
2022-11-18T14:00:02.400Z,29.97
2022-11-18T14:02:33.431Z,29.93
2022-11-18T14:05:03.475Z,29.82
2022-11-18T14:07:34.084Z,29.69
2022-11-18T14:10:04.030Z,29.65
2022-11-18T14:12:33.870Z,29.88
2022-11-18T14:15:16.888Z,29.32
2022-11-18T14:17:56.045Z,29.50
2022-11-18T14:20:25.877Z,29.57
2022-11-18T14:22:56.148Z,29.67
2022-11-18T14:25:28.838Z,29.17
2022-11-18T14:27:58.390Z,29.25
2022-11-18T14:30:35.729Z,29.31
2022-11-18T14:33:18.721Z,29.19
2022-11-18T14:35:50.921Z,29.19
2022-11-18T14:41:11.695Z,29.71
2022-11-18T14:43:40.138Z,29.35
2022-11-18T14:46:14.105Z,28.99
2022-11-18T14:48:42.495Z,29.19
2022-11-18T14:51:15.189Z,29.09
2022-11-18T14:53:43.817Z,29.47
2022-11-18T14:56:16.022Z,28.98
2022-11-18T14:58:44.385Z,28.95
2022-11-18T15:01:13.852Z,28.96
2022-11-18T15:03:42.455Z,29.24
2022-11-18T15:06:16.333Z,28.56
2022-11-18T15:08:46.233Z,28.96
2022-11-18T15:11:14.997Z,29.18
2022-11-18T15:13:43.788Z,29.04
2022-11-18T15:16:15.081Z,28.96
2022-11-18T15:18:43.979Z,28.91
2022-11-18T15:21:12.293Z,28.78
2022-11-18T15:23:43.846Z,28.70
2022-11-18T15:26:18.055Z,28.05
2022-11-18T15:28:46.976Z,28.65
2022-11-18T15:31:15.138Z,28.47
2022-11-18T15:33:43.756Z,28.32
2022-11-18T15:36:14.223Z,28.09
2022-11-18T15:38:44.519Z,28.23
2022-11-18T15:41:17.612Z,28.05
2022-11-18T15:43:46.452Z,28.30
2022-11-18T15:46:14.931Z,28.49
2022-11-18T15:48:43.278Z,28.22
2022-11-18T15:51:12.260Z,28.07
2022-11-18T15:53:41.094Z,28.03
2022-11-18T15:56:18.175Z,27.60
2022-11-18T15:58:46.800Z,27.84
2022-11-18T16:01:15.043Z,28.09
2022-11-18T16:03:43.639Z,28.05
2022-11-18T16:06:11.763Z,27.50
2022-11-18T16:08:40.227Z,27.48
2022-11-18T16:11:26.371Z,27.77
2022-11-18T16:13:56.171Z,27.95
2022-11-18T16:16:27.408Z,28.25
2022-11-18T16:18:56.281Z,28.87
2022-11-18T16:21:24.870Z,28.85
2022-11-18T16:23:55.987Z,29.19
2022-11-18T16:26:24.155Z,28.69
2022-11-18T16:28:52.736Z,29.07
2022-11-18T16:31:40.000Z,29.13
2022-11-18T16:34:08.989Z,28.69
2022-11-18T16:36:37.362Z,28.58
2022-11-18T16:39:07.465Z,28.13
2022-11-18T16:41:35.911Z,27.91
2022-11-18T16:44:06.113Z,27.84
2022-11-18T16:46:37.089Z,28.01
2022-11-18T16:49:06.332Z,27.85
2022-11-18T16:51:35.433Z,28.13
2022-11-18T16:54:05.389Z,27.84
2022-11-18T16:56:34.939Z,27.98
2022-11-18T16:59:04.974Z,27.78
2022-11-18T17:01:36.446Z,27.67
2022-11-18T17:04:06.544Z,28.08
2022-11-18T17:06:34.746Z,28.38
2022-11-18T17:09:03.214Z,28.39
2022-11-18T17:11:31.427Z,28.42
2022-11-18T17:13:59.895Z,28.30
2022-11-18T17:16:28.315Z,28.63
2022-11-18T17:18:57.845Z,28.76
2022-11-18T17:21:28.444Z,28.78
2022-11-18T17:23:57.648Z,29.00
2022-11-18T17:26:27.532Z,28.63
2022-11-18T17:28:57.476Z,28.58
2022-11-18T17:31:26.315Z,29.36
2022-11-18T17:33:56.212Z,29.58
2022-11-18T17:36:25.844Z,29.83
2022-11-18T17:38:56.724Z,29.51
2022-11-18T17:41:43.653Z,29.48
2022-11-18T17:44:13.979Z,29.72
2022-11-18T17:46:42.863Z,29.36
2022-11-18T17:49:13.539Z,29.08
2022-11-18T17:51:41.879Z,28.90
2022-11-18T17:54:12.164Z,28.71
2022-11-18T17:56:40.643Z,28.71
2022-11-18T17:59:09.184Z,28.74
2022-11-18T18:01:37.522Z,28.35
2022-11-18T18:04:06.279Z,28.70
2022-11-18T18:06:34.400Z,28.21
2022-11-18T18:09:02.803Z,28.06
2022-11-18T18:11:32.421Z,28.14
2022-11-18T18:14:15.021Z,28.47
2022-11-18T18:16:45.138Z,28.33
2022-11-18T18:19:15.582Z,28.54
2022-11-18T18:21:43.730Z,28.56
2022-11-18T18:24:12.899Z,28.37
2022-11-18T18:26:44.076Z,28.86
2022-11-18T18:29:12.880Z,28.95
2022-11-18T18:31:42.427Z,28.64
2022-11-18T18:34:11.044Z,28.53
2022-11-18T18:36:39.303Z,28.54
2022-11-18T18:39:07.714Z,28.41
2022-11-18T18:41:36.487Z,28.24
2022-11-18T18:44:06.605Z,28.11
2022-11-18T18:46:33.877Z,28.13
2022-11-18T18:49:05.243Z,28.02
2022-11-18T18:51:36.202Z,27.89
2022-11-18T18:54:04.734Z,26.91
2022-11-18T18:56:33.704Z,27.75
2022-11-18T18:59:02.913Z,27.85
2022-11-18T19:01:33.715Z,27.39
2022-11-18T19:04:02.670Z,26.09
2022-11-18T19:06:54.875Z,27.51
2022-11-18T19:09:20.920Z,27.37
2022-11-18T19:12:06.462Z,27.62
2022-11-18T19:14:35.683Z,27.50
2022-11-18T19:17:10.573Z,27.44
2022-11-18T19:19:58.692Z,27.32
2022-11-18T19:22:27.169Z,27.63
2022-11-18T19:24:56.125Z,27.89
2022-11-18T19:27:24.828Z,27.82
2022-11-18T19:29:53.347Z,27.96
2022-11-18T19:32:23.446Z,27.89
2022-11-18T19:34:52.181Z,27.87
2022-11-18T19:37:20.408Z,27.71
2022-11-18T19:39:49.022Z,27.74
2022-11-18T19:42:17.110Z,27.50
2022-11-18T19:44:45.640Z,27.79
2022-11-18T19:47:13.714Z,27.73
2022-11-18T19:49:43.528Z,27.58
2022-11-18T19:52:11.828Z,27.80
2022-11-18T19:54:40.727Z,27.63
2022-11-18T19:57:09.131Z,27.53
2022-11-18T19:59:37.869Z,27.79
2022-11-18T20:02:06.146Z,27.46
2022-11-18T20:04:34.786Z,27.32
2022-11-18T20:07:04.870Z,27.24
2022-11-18T20:09:33.923Z,27.07
2022-11-18T20:12:02.171Z,27.13
2022-11-18T20:14:30.599Z,27.05
2022-11-18T20:16:58.788Z,26.68
2022-11-18T20:19:27.245Z,26.76
2022-11-18T20:21:55.580Z,26.52
2022-11-18T20:24:25.491Z,26.73
2022-11-18T20:26:53.634Z,26.32
2022-11-18T20:29:22.289Z,26.29
2022-11-18T20:31:50.832Z,26.01
2022-11-18T20:34:19.335Z,26.02
2022-11-18T20:36:51.885Z,26.14
2022-11-18T20:39:20.757Z,25.99
2022-11-18T20:42:07.147Z,25.68
2022-11-18T20:44:35.509Z,25.59
2022-11-18T20:47:03.740Z,25.49
2022-11-18T20:49:32.073Z,25.63
2022-11-18T20:52:00.178Z,25.44
2022-11-18T20:54:28.505Z,25.34
2022-11-18T20:56:58.110Z,24.94
2022-11-18T20:59:26.605Z,25.26
2022-11-18T21:01:54.866Z,25.19
2022-11-18T21:04:23.785Z,25.39
2022-11-18T21:06:57.547Z,25.39
2022-11-18T21:09:26.620Z,25.16
2022-11-18T21:11:54.982Z,25.08
2022-11-18T21:14:25.493Z,24.99
2022-11-18T21:16:55.452Z,25.40
2022-11-18T21:19:26.286Z,25.26
2022-11-18T21:21:53.792Z,25.51
2022-11-18T21:24:23.409Z,25.33
2022-11-18T21:26:54.782Z,25.38
2022-11-18T21:29:25.967Z,25.33
2022-11-18T21:31:54.872Z,25.60
2022-11-18T21:34:24.359Z,25.62
2022-11-18T21:36:54.923Z,25.93
2022-11-18T21:39:23.887Z,25.15
2022-11-18T21:41:57.087Z,26.18
2022-11-18T21:44:28.830Z,26.00
2022-11-18T21:46:57.687Z,25.97
2022-11-18T21:49:26.481Z,26.16
2022-11-18T21:51:54.593Z,26.30
2022-11-18T21:54:23.062Z,26.21
2022-11-18T21:56:51.233Z,26.39
2022-11-18T21:59:19.729Z,26.54
2022-11-18T22:01:49.329Z,26.53
2022-11-18T22:04:31.620Z,26.88
2022-11-18T22:06:59.833Z,27.10
2022-11-18T22:09:34.527Z,27.01
2022-11-18T22:12:04.323Z,27.17
2022-11-18T22:14:32.911Z,27.13
2022-11-18T22:17:02.327Z,27.07
2022-11-18T22:19:30.816Z,27.35
2022-11-18T22:21:59.034Z,27.19
2022-11-18T22:24:27.401Z,27.43
2022-11-18T22:26:55.459Z,27.41
2022-11-18T22:29:26.164Z,27.18
2022-11-18T22:31:54.465Z,27.12
2022-11-18T22:34:24.356Z,27.23
2022-11-18T22:36:52.492Z,27.27
2022-11-18T22:39:21.426Z,27.37
2022-11-18T22:42:07.408Z,27.38
2022-11-18T22:44:36.498Z,27.42
2022-11-18T22:47:04.766Z,27.16
2022-11-18T22:49:34.634Z,27.09
2022-11-18T22:52:03.507Z,27.26
2022-11-18T22:54:38.838Z,27.13
2022-11-18T22:57:08.171Z,27.05
2022-11-18T22:59:36.564Z,27.28
2022-11-18T23:02:04.837Z,27.12
2022-11-18T23:04:34.826Z,27.15
2022-11-18T23:07:03.126Z,27.15
2022-11-18T23:09:31.734Z,27.20
2022-11-18T23:12:17.279Z,26.74
2022-11-18T23:14:45.674Z,27.19
2022-11-18T23:17:13.772Z,27.16
2022-11-18T23:19:44.004Z,27.23
2022-11-18T23:22:12.560Z,26.93
2022-11-18T23:24:41.100Z,27.15
2022-11-18T23:27:09.187Z,27.09
2022-11-18T23:29:37.514Z,27.09
2022-11-18T23:32:06.079Z,26.91
2022-11-18T23:34:34.630Z,26.91
2022-11-18T23:37:04.158Z,26.75
2022-11-18T23:39:32.582Z,26.73
2022-11-18T23:42:00.684Z,26.57
2022-11-18T23:44:47.553Z,26.57
2022-11-18T23:47:15.664Z,26.13
2022-11-18T23:49:43.973Z,26.23
2022-11-18T23:52:15.018Z,26.21
2022-11-18T23:54:43.134Z,25.40
2022-11-18T23:57:11.220Z,26.27
2022-11-18T23:59:39.679Z,26.26
